Time;durP1;ratioP1;P1;durP2;ratioP2;P2;SDS_P1;SDS_P2;PMS_P1;PMS_P2;Temp;Humidity;BMP_temperature;BMP_pressure;BME280_temperature;BME280_humidity;BME280_pressure;Samples;Min_cycle;Max_cycle;Signal;HPM_P1;HPM_P2
2024/04/06 00:02:19;;;;;;;16.27;5.18;;;11.20;99.90;;;;;;7374709;19;21139;-64
2024/04/06 00:04:46;;;;;;;16.60;5.53;;;11.20;99.90;;;;;;7376859;19;20034;-64
2024/04/06 00:07:12;;;;;;;15.48;5.00;;;11.20;99.90;;;;;;7378171;19;20023;-60
2024/04/06 00:09:38;;;;;;;14.93;5.18;;;11.20;99.90;;;;;;7374786;19;20029;-60
2024/04/06 00:12:07;;;;;;;17.83;5.15;;;11.20;99.90;;;;;;7377616;19;20025;-60
2024/04/06 00:14:33;;;;;;;16.10;5.68;;;11.20;99.90;;;;;;7372531;19;20022;-59
2024/04/06 00:16:59;;;;;;;12.85;5.13;;;11.20;99.90;;;;;;7381177;19;20018;-59
2024/04/06 00:19:25;;;;;;;18.35;4.93;;;11.10;99.90;;;;;;7373571;19;20396;-59
2024/04/06 00:21:51;;;;;;;19.20;5.65;;;11.20;99.90;;;;;;7375065;19;20049;-63
2024/04/06 00:24:18;;;;;;;14.38;4.63;;;11.20;99.90;;;;;;7371142;19;20029;-63
2024/04/06 00:26:45;;;;;;;17.10;5.78;;;11.20;99.90;;;;;;7377348;19;20044;-64
2024/04/06 00:29:11;;;;;;;17.70;5.68;;;11.10;99.90;;;;;;7368170;19;20429;-59
2024/04/06 00:31:37;;;;;;;14.13;4.95;;;11.10;99.90;;;;;;7376246;19;20014;-63
2024/04/06 00:34:03;;;;;;;16.52;5.47;;;11.10;99.90;;;;;;7375233;19;20493;-63
2024/04/06 00:36:31;;;;;;;16.70;5.57;;;11.10;99.90;;;;;;7375233;19;20050;-64
2024/04/06 00:38:58;;;;;;;16.40;6.05;;;11.00;99.90;;;;;;7368757;19;20541;-63
2024/04/06 00:41:25;;;;;;;16.45;6.05;;;11.00;99.90;;;;;;7367775;19;20364;-63
2024/04/06 00:43:51;;;;;;;12.07;5.00;;;11.10;99.90;;;;;;7369184;19;20352;-63
2024/04/06 00:46:17;;;;;;;14.43;5.78;;;11.10;99.90;;;;;;7374919;19;20037;-59
2024/04/06 00:48:45;;;;;;;16.00;4.95;;;11.10;99.90;;;;;;7370633;19;20118;-59
2024/04/06 00:51:12;;;;;;;12.52;5.00;;;11.10;99.90;;;;;;7369541;19;20022;-59
2024/04/06 00:53:38;;;;;;;12.27;4.75;;;11.00;99.90;;;;;;7366684;19;20629;-59
2024/04/06 00:56:05;;;;;;;16.83;5.45;;;11.00;99.90;;;;;;7369523;19;20487;-59
2024/04/06 00:58:32;;;;;;;18.63;5.63;;;11.00;99.90;;;;;;7368517;19;20022;-60
2024/04/06 01:00:58;;;;;;;13.63;6.20;;;10.90;99.90;;;;;;7361976;19;20041;-59
2024/04/06 01:03:24;;;;;;;14.40;6.22;;;10.90;99.90;;;;;;7373502;19;20028;-60
2024/04/06 01:05:51;;;;;;;16.80;6.15;;;11.00;99.90;;;;;;7368449;19;20422;-59
2024/04/06 01:08:17;;;;;;;19.02;6.45;;;11.00;99.90;;;;;;7368372;19;20018;-64
2024/04/06 01:10:44;;;;;;;15.88;6.13;;;11.00;99.90;;;;;;7365399;19;20018;-60
2024/04/06 01:13:11;;;;;;;15.38;6.18;;;11.00;99.90;;;;;;7369469;19;20019;-64
2024/04/06 01:15:37;;;;;;;16.92;6.35;;;11.00;99.90;;;;;;7373298;19;21121;-60
2024/04/06 01:18:04;;;;;;;14.27;5.13;;;11.00;99.90;;;;;;7365443;19;20643;-59
2024/04/06 01:20:35;;;;;;;15.98;5.78;;;11.00;99.90;;;;;;7373181;19;20086;-60
2024/04/06 01:23:03;;;;;;;17.35;5.38;;;10.90;99.90;;;;;;7372562;19;20444;-59
2024/04/06 01:25:29;;;;;;;14.57;5.60;;;10.90;99.90;;;;;;7368450;19;20025;-60
2024/04/06 01:27:55;;;;;;;17.98;5.35;;;10.90;99.90;;;;;;7369235;19;20014;-60
2024/04/06 01:30:21;;;;;;;17.35;5.60;;;10.80;99.90;;;;;;7370395;19;20030;-64
2024/04/06 01:32:53;;;;;;;14.80;5.07;;;10.90;99.90;;;;;;7364392;19;20018;-64
2024/04/06 01:35:19;;;;;;;20.10;5.68;;;10.90;99.90;;;;;;7371898;19;20037;-59
2024/04/06 01:37:45;;;;;;;21.60;5.70;;;10.90;99.90;;;;;;7366981;19;20133;-65
2024/04/06 01:40:12;;;;;;;14.43;5.47;;;11.00;99.90;;;;;;7370288;19;20562;-64
2024/04/06 01:42:38;;;;;;;13.73;5.47;;;11.00;99.90;;;;;;7370302;19;20018;-65
2024/04/06 01:45:05;;;;;;;13.73;6.47;;;11.00;99.90;;;;;;7371098;19;20022;-64
2024/04/06 01:47:32;;;;;;;14.68;4.38;;;11.00;99.90;;;;;;7366277;19;20479;-65
2024/04/06 01:50:07;;;;;;;12.50;5.07;;;11.00;99.90;;;;;;7369388;19;20093;-64
2024/04/06 01:52:33;;;;;;;13.60;4.75;;;11.00;99.90;;;;;;7370631;19;20014;-64
2024/04/06 01:55:00;;;;;;;15.77;5.22;;;10.90;99.90;;;;;;7371279;19;20019;-59
2024/04/06 01:57:26;;;;;;;12.88;5.07;;;10.90;99.90;;;;;;7365218;19;20113;-64
2024/04/06 01:59:52;;;;;;;11.68;4.93;;;10.90;99.90;;;;;;7368643;19;20035;-64
2024/04/06 02:02:18;;;;;;;16.88;5.10;;;10.90;99.90;;;;;;7365399;19;20023;-64
2024/04/06 02:04:46;;;;;;;13.65;4.82;;;10.90;99.90;;;;;;7367816;19;20105;-64
2024/04/06 02:07:13;;;;;;;15.77;5.35;;;10.80;99.90;;;;;;7367651;19;20587;-59
2024/04/06 02:09:39;;;;;;;23.42;5.60;;;10.80;99.90;;;;;;7370300;19;20022;-63
2024/04/06 02:12:09;;;;;;;14.63;5.28;;;10.90;99.90;;;;;;7367107;19;20018;-64
2024/04/06 02:14:36;;;;;;;14.90;5.35;;;10.90;99.90;;;;;;7367359;19;20011;-64
2024/04/06 02:17:06;;;;;;;8.70;4.10;;;10.90;99.90;;;;;;7369991;19;20019;-64
2024/04/06 02:19:32;;;;;;;12.52;5.32;;;11.00;99.90;;;;;;7377116;19;21188;-64
2024/04/06 02:21:58;;;;;;;15.95;5.88;;;11.00;99.90;;;;;;7377564;19;20018;-65
2024/04/06 02:24:24;;;;;;;16.17;5.60;;;11.10;99.90;;;;;;7374315;19;20022;-64
2024/04/06 02:26:50;;;;;;;14.93;5.05;;;11.10;99.90;;;;;;7377642;19;20073;-64
2024/04/06 02:29:18;;;;;;;17.80;6.25;;;11.20;99.90;;;;;;7380720;19;20023;-60
2024/04/06 02:31:45;;;;;;;15.60;5.78;;;11.20;99.90;;;;;;7377043;19;20077;-64
2024/04/06 02:34:11;;;;;;;12.02;5.93;;;11.20;99.90;;;;;;7373868;19;20014;-60
2024/04/06 02:36:38;;;;;;;16.67;5.60;;;11.10;99.90;;;;;;7375040;19;20054;-61
2024/04/06 02:39:07;;;;;;;10.98;5.53;;;11.10;99.90;;;;;;7373013;19;20090;-68
2024/04/06 02:41:33;;;;;;;9.70;5.20;;;11.10;99.90;;;;;;7375184;19;20022;-64
2024/04/06 02:44:00;;;;;;;16.60;6.47;;;11.10;99.90;;;;;;7375679;19;20019;-65
2024/04/06 02:46:27;;;;;;;17.42;6.05;;;11.10;99.90;;;;;;7377486;19;20026;-65
2024/04/06 02:48:53;;;;;;;13.02;6.20;;;11.00;99.90;;;;;;7371162;19;20378;-65
2024/04/06 02:51:19;;;;;;;13.10;6.03;;;11.00;99.90;;;;;;7378627;19;20026;-60
2024/04/06 02:53:45;;;;;;;12.60;6.55;;;11.00;99.90;;;;;;7376431;19;20019;-65
2024/04/06 02:56:12;;;;;;;12.82;6.97;;;11.00;99.90;;;;;;7372026;19;20026;-60
2024/04/06 02:58:39;;;;;;;11.35;6.85;;;11.10;99.90;;;;;;7374845;19;20022;-64
2024/04/06 03:01:05;;;;;;;13.15;6.80;;;11.10;99.90;;;;;;7373449;19;20022;-65
2024/04/06 03:03:34;;;;;;;9.32;7.20;;;11.10;99.90;;;;;;7374806;19;20481;-60
2024/04/06 03:06:00;;;;;;;12.10;7.45;;;11.00;99.90;;;;;;7375111;19;20374;-65
2024/04/06 03:08:26;;;;;;;14.40;7.53;;;11.10;99.90;;;;;;7375459;19;20026;-60
2024/04/06 03:10:53;;;;;;;15.95;8.25;;;11.10;99.90;;;;;;7370680;19;20390;-61
2024/04/06 03:13:19;;;;;;;11.32;7.60;;;11.10;99.90;;;;;;7376847;19;20026;-65
2024/04/06 03:15:46;;;;;;;12.80;7.38;;;11.00;99.90;;;;;;7365130;19;21404;-61
2024/04/06 03:18:12;;;;;;;12.38;8.13;;;11.00;99.90;;;;;;7378570;19;20502;-61
2024/04/06 03:20:39;;;;;;;13.80;8.27;;;11.00;99.90;;;;;;7372972;19;20022;-65
2024/04/06 03:23:06;;;;;;;12.32;8.65;;;10.90;99.90;;;;;;7375292;19;20033;-68
2024/04/06 03:25:34;;;;;;;13.05;8.65;;;10.90;99.90;;;;;;7371241;19;20018;-65
2024/04/06 03:28:00;;;;;;;13.55;8.70;;;10.90;99.90;;;;;;7375998;19;20022;-60
2024/04/06 03:30:27;;;;;;;12.90;8.95;;;10.90;99.90;;;;;;7376359;19;20861;-65
2024/04/06 03:32:53;;;;;;;13.27;8.88;;;10.90;99.90;;;;;;7368812;19;20037;-65
2024/04/06 03:35:20;;;;;;;13.63;9.77;;;11.00;99.90;;;;;;7372206;19;20019;-61
2024/04/06 03:37:48;;;;;;;12.68;9.32;;;11.00;99.90;;;;;;7373507;19;20598;-65
2024/04/06 03:40:15;;;;;;;13.02;9.70;;;11.00;99.90;;;;;;7373746;19;20034;-65
2024/04/06 03:42:42;;;;;;;12.52;8.95;;;10.90;99.90;;;;;;7369010;19;20430;-65
2024/04/06 03:45:10;;;;;;;15.82;9.73;;;10.90;99.90;;;;;;7377326;19;20023;-60
2024/04/06 03:47:39;;;;;;;15.90;10.02;;;10.80;99.90;;;;;;7371237;19;20023;-62
2024/04/06 03:50:06;;;;;;;11.63;9.35;;;10.80;99.90;;;;;;7376771;19;20341;-65
2024/04/06 03:52:32;;;;;;;15.45;11.70;;;10.70;99.90;;;;;;7372606;19;20018;-62
2024/04/06 03:54:58;;;;;;;13.98;11.15;;;10.70;99.90;;;;;;7375348;19;20014;-65
2024/04/06 03:57:24;;;;;;;13.32;10.50;;;10.60;99.90;;;;;;7375721;19;20019;-65
2024/04/06 03:59:50;;;;;;;15.93;9.85;;;10.60;99.90;;;;;;7371191;19;20025;-63
2024/04/06 04:02:17;;;;;;;19.30;11.23;;;10.50;99.90;;;;;;7370276;19;20040;-59
2024/04/06 04:04:43;;;;;;;17.15;12.07;;;10.50;99.90;;;;;;7368743;19;20471;-59
2024/04/06 04:07:09;;;;;;;16.15;11.27;;;10.50;99.90;;;;;;7370173;19;20038;-64
2024/04/06 04:09:38;;;;;;;17.05;12.27;;;10.50;99.90;;;;;;7374697;19;20510;-64
2024/04/06 04:12:04;;;;;;;18.55;14.52;;;10.60;99.90;;;;;;7371186;19;20018;-62
2024/04/06 04:14:31;;;;;;;15.98;13.43;;;10.70;99.90;;;;;;7376787;19;20019;-59
2024/04/06 04:16:57;;;;;;;15.85;13.95;;;10.80;99.90;;;;;;7372703;19;20307;-59
2024/04/06 04:19:24;;;;;;;18.13;13.77;;;10.90;99.90;;;;;;7376678;19;20018;-58
2024/04/06 04:21:51;;;;;;;18.77;15.00;;;10.90;99.90;;;;;;7372233;19;20348;-64
2024/04/06 04:24:18;;;;;;;16.33;14.18;;;10.90;99.90;;;;;;7367117;19;20383;-64
2024/04/06 04:26:45;;;;;;;21.27;15.35;;;11.00;99.90;;;;;;7372123;19;20022;-63
2024/04/06 04:29:11;;;;;;;18.63;14.75;;;11.10;99.90;;;;;;7368387;19;20022;-63
2024/04/06 04:31:37;;;;;;;15.48;13.98;;;11.10;99.90;;;;;;7379104;19;20032;-64
2024/04/06 04:34:04;;;;;;;20.13;14.00;;;11.10;99.90;;;;;;7367283;19;20022;-64
2024/04/06 04:36:30;;;;;;;17.23;14.02;;;11.20;99.90;;;;;;7376595;19;20018;-64
2024/04/06 04:38:56;;;;;;;19.92;15.02;;;11.30;99.90;;;;;;7365719;19;20476;-63
2024/04/06 04:41:22;;;;;;;18.40;15.27;;;11.40;99.90;;;;;;7368675;19;20359;-63
2024/04/06 04:43:48;;;;;;;16.55;14.80;;;11.40;99.90;;;;;;7366832;19;20660;-59
2024/04/06 04:46:15;;;;;;;18.58;15.07;;;11.50;99.90;;;;;;7372637;19;20026;-59
2024/04/06 04:48:52;;;;;;;17.92;14.88;;;11.50;99.90;;;;;;7366863;19;20090;-64
2024/04/06 04:51:20;;;;;;;18.42;14.40;;;11.60;99.90;;;;;;7372646;19;20023;-64
2024/04/06 04:53:46;;;;;;;16.58;14.35;;;11.70;99.90;;;;;;7364486;19;20019;-64
2024/04/06 04:56:12;;;;;;;17.52;14.30;;;11.70;99.90;;;;;;7369997;19;20113;-63
2024/04/06 04:58:38;;;;;;;15.98;14.27;;;11.70;99.90;;;;;;7369720;19;20022;-65
2024/04/06 05:01:04;;;;;;;19.10;14.63;;;11.60;99.90;;;;;;7372278;19;20018;-64
2024/04/06 05:03:31;;;;;;;14.88;13.30;;;11.60;99.90;;;;;;7371148;19;20014;-65
2024/04/06 05:05:57;;;;;;;16.77;13.98;;;11.80;99.90;;;;;;7367690;19;20014;-64
2024/04/06 05:08:24;;;;;;;16.90;15.10;;;11.80;99.90;;;;;;7373544;19;20014;-63
2024/04/06 05:10:51;;;;;;;18.35;13.18;;;11.90;99.90;;;;;;7369234;19;20015;-59
2024/04/06 05:13:18;;;;;;;14.68;13.18;;;11.90;99.90;;;;;;7376773;19;20105;-63
2024/04/06 05:15:48;;;;;;;17.08;12.70;;;12.00;99.90;;;;;;7369596;19;20056;-63
2024/04/06 05:18:19;;;;;;;15.32;11.63;;;12.10;99.90;;;;;;7370770;19;20045;-63
2024/04/06 05:21:06;;;;;;;15.00;11.88;;;12.10;99.90;;;;;;7374457;19;20018;-63
2024/04/06 05:23:32;;;;;;;12.82;10.52;;;12.30;99.90;;;;;;7376624;19;20021;-59
2024/04/06 05:25:58;;;;;;;11.73;9.50;;;12.30;99.90;;;;;;7370128;19;20026;-63
2024/04/06 05:28:28;;;;;;;9.75;8.73;;;12.40;99.90;;;;;;7373415;19;20049;-63
2024/04/06 05:30:54;;;;;;;13.05;9.68;;;12.50;99.90;;;;;;7369518;19;20728;-60
2024/04/06 05:33:22;;;;;;;11.50;8.52;;;12.60;99.90;;;;;;7374654;19;20023;-59
2024/04/06 05:35:49;;;;;;;11.63;8.65;;;12.60;99.90;;;;;;7371451;19;20018;-59
2024/04/06 05:38:17;;;;;;;10.65;8.15;;;12.70;99.90;;;;;;7371267;19;20738;-61
2024/04/06 05:40:45;;;;;;;10.43;8.60;;;12.70;99.90;;;;;;7370677;19;20389;-57
2024/04/06 05:43:12;;;;;;;9.82;7.30;;;12.70;99.90;;;;;;7369348;19;20094;-61
2024/04/06 05:45:42;;;;;;;11.65;8.07;;;12.70;99.90;;;;;;7370426;19;20041;-61
2024/04/06 05:48:09;;;;;;;9.13;6.60;;;12.70;99.90;;;;;;7366133;19;20040;-61
2024/04/06 05:50:41;;;;;;;8.20;6.68;;;12.80;99.90;;;;;;7365571;19;20116;-61
2024/04/06 05:53:07;;;;;;;59.95;52.70;;;12.80;99.90;;;;;;7365367;19;20384;-61
2024/04/06 05:55:33;;;;;;;38.70;32.38;;;13.00;99.90;;;;;;7369501;19;20022;-61
2024/04/06 05:57:59;;;;;;;20.60;15.02;;;13.00;99.90;;;;;;7372959;19;20019;-62
2024/04/06 06:00:26;;;;;;;12.88;8.07;;;13.10;99.90;;;;;;7373962;19;20029;-61
2024/04/06 06:02:54;;;;;;;17.13;13.52;;;13.10;99.90;;;;;;7378771;19;20481;-61
2024/04/06 06:05:20;;;;;;;10.00;5.43;;;13.10;99.90;;;;;;7374556;19;20011;-61
2024/04/06 06:07:47;;;;;;;7.10;5.43;;;13.20;99.90;;;;;;7375243;19;20022;-62
2024/04/06 06:10:14;;;;;;;8.45;6.65;;;13.30;99.90;;;;;;7380727;19;20014;-60
2024/04/06 06:12:41;;;;;;;7.70;5.68;;;13.40;99.90;;;;;;7374290;19;20022;-56
2024/04/06 06:15:07;;;;;;;9.63;5.55;;;13.50;99.90;;;;;;7381455;19;20022;-60
2024/04/06 06:17:33;;;;;;;7.85;5.05;;;13.50;99.90;;;;;;7370443;19;20417;-60
2024/04/06 06:20:00;;;;;;;8.35;4.70;;;13.60;99.90;;;;;;7385392;19;20014;-57
2024/04/06 06:22:29;;;;;;;8.27;4.82;;;13.60;99.90;;;;;;7374359;19;20018;-57
2024/04/06 06:24:56;;;;;;;10.25;4.93;;;13.60;99.90;;;;;;7378351;19;20064;-58
2024/04/06 06:27:23;;;;;;;8.93;6.13;;;13.70;99.90;;;;;;7376555;19;20792;-58
2024/04/06 06:29:49;;;;;;;7.85;4.80;;;13.70;99.90;;;;;;7378843;19;20257;-61
2024/04/06 06:32:16;;;;;;;11.57;9.10;;;13.70;99.90;;;;;;7374375;19;20477;-61
2024/04/06 06:34:43;;;;;;;13.80;10.98;;;13.80;99.90;;;;;;7374480;19;20424;-61
2024/04/06 06:37:09;;;;;;;10.40;4.32;;;13.90;99.90;;;;;;7372666;19;20465;-56
2024/04/06 06:39:35;;;;;;;6.45;4.10;;;14.20;99.90;;;;;;7376463;19;20499;-62
2024/04/06 06:42:01;;;;;;;6.85;3.63;;;14.50;99.90;;;;;;7380050;19;20035;-58
2024/04/06 06:44:28;;;;;;;7.50;4.03;;;14.80;99.90;;;;;;7375067;19;20025;-58
2024/04/06 06:46:55;;;;;;;5.95;3.60;;;15.00;99.90;;;;;;7371915;19;20045;-58
2024/04/06 06:49:21;;;;;;;8.38;4.10;;;15.00;99.90;;;;;;7377374;19;20431;-61
2024/04/06 06:51:47;;;;;;;9.15;5.22;;;14.90;99.90;;;;;;7381916;19;20014;-56
2024/04/06 06:54:13;;;;;;;8.88;6.70;;;14.90;99.90;;;;;;7377580;19;20010;-57
2024/04/06 06:56:39;;;;;;;15.25;9.90;;;14.80;99.90;;;;;;7377922;19;20018;-61
2024/04/06 06:59:06;;;;;;;10.73;5.60;;;14.80;99.90;;;;;;7375369;19;20023;-61
2024/04/06 07:01:32;;;;;;;8.77;7.00;;;14.70;99.90;;;;;;7376190;19;20044;-61
2024/04/06 07:03:58;;;;;;;7.38;3.80;;;14.70;99.90;;;;;;7377719;19;20018;-60
2024/04/06 07:06:24;;;;;;;13.30;10.15;;;14.80;99.90;;;;;;7378939;19;20025;-57
2024/04/06 07:08:50;;;;;;;5.35;3.20;;;15.00;99.90;;;;;;7378243;19;20026;-57
2024/04/06 07:11:17;;;;;;;6.10;3.65;;;15.30;99.90;;;;;;7379532;19;20059;-61
2024/04/06 07:13:43;;;;;;;5.97;3.00;;;15.80;99.90;;;;;;7372172;19;20051;-61
2024/04/06 07:16:13;;;;;;;5.95;3.08;;;16.10;99.90;;;;;;7378291;19;20022;-57
2024/04/06 07:18:40;;;;;;;4.70;2.50;;;16.40;99.90;;;;;;7378051;19;20028;-61
2024/04/06 07:21:12;;;;;;;8.15;4.15;;;16.80;99.90;;;;;;7379217;19;20487;-61
2024/04/06 07:23:39;;;;;;;12.75;9.73;;;17.00;99.90;;;;;;7374201;19;20109;-62
2024/04/06 07:26:05;;;;;;;8.40;4.20;;;17.20;99.90;;;;;;7379678;19;20015;-61
2024/04/06 07:28:33;;;;;;;8.75;6.57;;;17.10;99.90;;;;;;7373716;19;20022;-58
2024/04/06 07:30:59;;;;;;;11.75;6.95;;;17.10;99.90;;;;;;7376197;19;20384;-62
2024/04/06 07:33:27;;;;;;;9.30;5.95;;;17.00;99.90;;;;;;7376445;19;20410;-57
2024/04/06 07:35:54;;;;;;;9.73;4.68;;;17.20;99.90;;;;;;7378518;19;20018;-58
2024/04/06 07:38:20;;;;;;;7.93;3.10;;;17.60;99.90;;;;;;7375695;19;20029;-61
2024/04/06 07:40:55;;;;;;;5.03;2.75;;;18.10;99.90;;;;;;7377545;19;20494;-60
2024/04/06 07:43:21;;;;;;;5.97;2.47;;;18.50;99.90;;;;;;7374648;19;20018;-62
2024/04/06 07:45:47;;;;;;;6.82;2.78;;;18.90;99.90;;;;;;7376353;19;20018;-63
2024/04/06 07:48:14;;;;;;;6.85;2.38;;;19.20;99.90;;;;;;7377713;19;20060;-62
2024/04/06 07:50:40;;;;;;;5.43;2.60;;;19.60;99.90;;;;;;7377785;19;20018;-59
2024/04/06 07:53:06;;;;;;;4.78;2.03;;;19.80;99.90;;;;;;7379086;19;20517;-59
2024/04/06 07:55:32;;;;;;;5.30;2.38;;;20.10;99.90;;;;;;7380213;19;20030;-61
2024/04/06 07:57:58;;;;;;;6.20;2.78;;;20.10;49.90;;;;;;7377277;19;20121;-58
2024/04/06 08:00:25;;;;;;;7.45;2.35;;;20.10;14.80;;;;;;7373336;19;20419;-58
2024/04/06 08:02:51;;;;;;;13.88;11.80;;;20.10;12.30;;;;;;7378181;19;20037;-58
2024/04/06 08:05:17;;;;;;;6.40;2.58;;;20.30;1.00;;;;;;7374683;19;20094;-60
2024/04/06 08:07:43;;;;;;;4.75;2.55;;;20.40;1.00;;;;;;7377098;19;20050;-57
2024/04/06 08:10:17;;;;;;;5.03;2.30;;;20.00;1.00;;;;;;7375103;19;20041;-60
2024/04/06 08:12:43;;;;;;;4.63;1.88;;;20.10;99.90;;;;;;7377886;19;20014;-58
2024/04/06 08:15:11;;;;;;;5.55;2.80;;;20.50;1.00;;;;;;7376251;19;20023;-57
2024/04/06 08:17:41;;;;;;;6.18;2.40;;;20.20;1.00;;;;;;7378425;19;20019;-57
2024/04/06 08:20:11;;;;;;;4.27;2.00;;;20.00;99.90;;;;;;7375474;19;20050;-58
2024/04/06 08:22:39;;;;;;;6.88;2.28;;;20.20;99.90;;;;;;7377466;19;20126;-61
2024/04/06 08:25:05;;;;;;;6.53;1.92;;;20.90;99.90;;;;;;7374613;19;20014;-59
2024/04/06 08:27:35;;;;;;;5.68;2.00;;;21.40;99.90;;;;;;7373344;19;20110;-61
2024/04/06 08:30:04;;;;;;;5.53;2.00;;;21.70;99.90;;;;;;7373969;19;20018;-58
2024/04/06 08:32:31;;;;;;;4.60;1.98;;;21.20;99.90;;;;;;7378081;19;20025;-58
2024/04/06 08:35:01;;;;;;;2.78;1.65;;;20.90;99.90;;;;;;7373776;19;20377;-58
2024/04/06 08:37:28;;;;;;;4.40;2.13;;;21.30;99.90;;;;;;7375965;19;20025;-58
2024/04/06 08:39:54;;;;;;;4.43;2.00;;;21.70;99.90;;;;;;7377358;19;20121;-60
2024/04/06 08:42:22;;;;;;;4.68;2.00;;;22.30;99.90;;;;;;7378054;19;20018;-60
2024/04/06 08:44:49;;;;;;;6.28;2.03;;;22.40;1.00;;;;;;7376023;19;20038;-61
2024/04/06 08:47:17;;;;;;;3.33;1.67;;;21.90;10.40;;;;;;7373904;19;20467;-67
2024/04/06 08:49:43;;;;;;;4.93;2.05;;;21.50;58.50;;;;;;7375672;19;20011;-67
2024/04/06 08:52:11;;;;;;;3.88;2.20;;;21.10;99.90;;;;;;7378167;19;20094;-66
2024/04/06 08:54:38;;;;;;;3.95;2.17;;;20.90;99.90;;;;;;7372442;19;20600;-66
2024/04/06 08:57:05;;;;;;;4.22;1.83;;;21.10;99.90;;;;;;7378859;19;20086;-66
2024/04/06 08:59:32;;;;;;;3.90;1.90;;;21.40;13.70;;;;;;7370803;19;20374;-60
2024/04/06 09:02:00;;;;;;;3.65;2.05;;;22.00;1.00;;;;;;7376306;19;20424;-67
2024/04/06 09:04:26;;;;;;;3.58;1.83;;;22.40;1.00;;;;;;7377420;19;20397;-67
2024/04/06 09:06:53;;;;;;;5.97;2.30;;;23.00;1.00;;;;;;7373485;19;20095;-61
2024/04/06 09:09:19;;;;;;;5.00;2.20;;;23.50;1.00;;;;;;7374251;19;20032;-61
2024/04/06 09:11:45;;;;;;;5.05;2.35;;;23.60;99.90;;;;;;7373874;19;20034;-61
2024/04/06 09:14:12;;;;;;;4.82;2.33;;;23.50;99.90;;;;;;7375886;19;20504;-62
2024/04/06 09:16:43;;;;;;;4.53;1.70;;;23.70;99.90;;;;;;7372648;19;20040;-63
2024/04/06 09:19:10;;;;;;;7.50;2.50;;;23.80;99.90;;;;;;7375642;19;20056;-67
2024/04/06 09:21:36;;;;;;;4.70;2.10;;;23.80;99.90;;;;;;7370464;19;20545;-68
2024/04/06 09:24:03;;;;;;;5.55;2.13;;;23.90;60.60;;;;;;7375061;19;20542;-67
2024/04/06 09:26:33;;;;;;;4.55;2.00;;;24.00;99.90;;;;;;7375097;19;20018;-68
2024/04/06 09:29:00;;;;;;;4.60;1.83;;;24.40;91.60;;;;;;7374483;19;20022;-61
2024/04/06 09:31:27;;;;;;;3.70;1.52;;;24.50;63.50;;;;;;7375311;19;20030;-67
2024/04/06 09:33:56;;;;;;;5.68;2.38;;;24.40;1.00;;;;;;7372755;19;20019;-68
2024/04/06 09:36:23;;;;;;;5.22;1.50;;;24.50;1.00;;;;;;7375428;19;20507;-68
2024/04/06 09:38:51;;;;;;;4.55;1.85;;;24.70;1.00;;;;;;7374080;19;20050;-68
2024/04/06 09:41:20;;;;;;;4.07;1.58;;;24.90;1.00;;;;;;7374777;19;20022;-68
2024/04/06 09:43:49;;;;;;;4.57;1.60;;;24.90;1.00;;;;;;7375002;19;20447;-68
2024/04/06 09:46:18;;;;;;;5.20;1.77;;;25.00;1.00;;;;;;7373644;19;20527;-68
2024/04/06 09:48:46;;;;;;;9.48;5.78;;;25.10;1.00;;;;;;7373236;19;20649;-62
2024/04/06 09:51:12;;;;;;;4.75;1.88;;;25.20;1.00;;;;;;7374875;19;20452;-60
2024/04/06 09:53:41;;;;;;;4.65;1.90;;;25.30;1.00;;;;;;7373364;19;20015;-61
2024/04/06 09:56:09;;;;;;;5.65;2.05;;;25.40;1.00;;;;;;7374624;19;20018;-61
2024/04/06 09:58:36;;;;;;;4.97;3.10;;;25.60;99.90;;;;;;7370902;19;20025;-61
2024/04/06 10:01:11;;;;;;;5.00;1.77;;;25.80;99.90;;;;;;7372324;19;20022;-61
2024/04/06 10:03:48;;;;;;;4.53;2.20;;;26.00;99.90;;;;;;7376748;19;20089;-61
2024/04/06 10:06:15;;;;;;;4.75;2.55;;;26.00;99.90;;;;;;7373106;19;20022;-62
2024/04/06 10:08:52;;;;;;;9.45;5.70;;;26.10;99.90;;;;;;7372725;19;20386;-61
2024/04/06 10:11:22;;;;;;;5.15;2.30;;;26.00;99.90;;;;;;7369450;19;20053;-61
2024/04/06 10:14:21;;;;;;;4.67;1.80;;;26.20;99.90;;;;;;7370389;19;20025;-60
2024/04/06 10:16:47;;;;;;;3.70;1.73;;;26.20;99.90;;;;;;7371381;19;20023;-61
2024/04/06 10:19:14;;;;;;;4.53;2.90;;;26.20;99.90;;;;;;7372153;19;20022;-57
2024/04/06 10:21:46;;;;;;;5.03;1.80;;;26.30;99.90;;;;;;7373899;19;20022;-58
2024/04/06 10:24:13;;;;;;;3.65;1.55;;;26.10;99.90;;;;;;7371558;19;20025;-60
2024/04/06 10:26:47;;;;;;;4.82;1.80;;;26.20;99.90;;;;;;7373312;19;20027;-60
2024/04/06 10:29:14;;;;;;;4.65;1.70;;;26.30;99.90;;;;;;7374381;19;20101;-60
2024/04/06 10:31:41;;;;;;;5.28;1.80;;;26.40;99.90;;;;;;7370532;19;20026;-60
2024/04/06 10:34:07;;;;;;;3.03;1.17;;;26.50;99.90;;;;;;7371237;19;20022;-59
2024/04/06 10:36:34;;;;;;;4.43;1.80;;;26.70;99.90;;;;;;7373288;19;20018;-57
2024/04/06 10:39:09;;;;;;;6.07;1.65;;;26.80;99.90;;;;;;7375522;19;20025;-59
2024/04/06 10:41:37;;;;;;;3.53;1.77;;;27.10;99.90;;;;;;7377406;19;20822;-60
2024/04/06 10:44:04;;;;;;;5.60;1.60;;;27.00;99.90;;;;;;7381002;19;20372;-59
2024/04/06 10:46:30;;;;;;;10.57;8.40;;;27.00;99.90;;;;;;7378888;19;20026;-57
2024/04/06 10:48:56;;;;;;;6.22;4.53;;;27.10;99.90;;;;;;7380746;19;20747;-60
2024/04/06 10:51:22;;;;;;;8.95;4.97;;;27.30;99.90;;;;;;7378908;19;20073;-58
2024/04/06 10:53:49;;;;;;;4.22;3.00;;;27.00;99.90;;;;;;7379433;19;20030;-60
2024/04/06 10:56:15;;;;;;;9.25;6.93;;;26.80;99.90;;;;;;7382238;19;20035;-58
2024/04/06 10:58:42;;;;;;;3.78;2.05;;;26.40;99.90;;;;;;7379279;19;20018;-57
2024/04/06 11:01:08;;;;;;;5.97;2.17;;;26.00;99.90;;;;;;7377746;19;20090;-59
2024/04/06 11:03:34;;;;;;;4.47;1.88;;;25.80;99.90;;;;;;7378456;19;20022;-57
2024/04/06 11:06:01;;;;;;;3.05;1.48;;;25.50;99.90;;;;;;7378933;19;20040;-59
2024/04/06 11:08:27;;;;;;;4.03;1.80;;;25.00;99.90;;;;;;7376149;19;20041;-60
2024/04/06 11:10:55;;;;;;;4.95;1.70;;;24.80;99.90;;;;;;7376422;19;20022;-59
2024/04/06 11:13:24;;;;;;;3.97;1.88;;;24.50;99.90;;;;;;7377703;19;20023;-60
2024/04/06 11:15:51;;;;;;;3.88;1.65;;;24.50;99.90;;;;;;7376391;19;20026;-60
2024/04/06 11:18:18;;;;;;;5.55;2.15;;;24.50;99.90;;;;;;7378252;19;20019;-60
2024/04/06 11:20:44;;;;;;;3.80;1.73;;;24.50;99.90;;;;;;7378318;19;20030;-59
2024/04/06 11:23:21;;;;;;;5.45;2.03;;;24.60;99.90;;;;;;7376681;19;20055;-60
2024/04/06 11:25:48;;;;;;;3.95;1.90;;;24.70;99.90;;;;;;7374827;19;20385;-57
2024/04/06 11:28:14;;;;;;;3.92;1.95;;;24.70;99.90;;;;;;7378088;19;20023;-60
2024/04/06 11:30:41;;;;;;;6.15;1.92;;;24.90;99.90;;;;;;7374653;19;20033;-61
2024/04/06 11:33:07;;;;;;;4.88;1.73;;;25.10;99.90;;;;;;7375582;19;20018;-55
2024/04/06 11:35:34;;;;;;;6.18;1.65;;;25.30;99.90;;;;;;7373735;19;20019;-56
2024/04/06 11:38:01;;;;;;;3.28;1.67;;;25.40;99.90;;;;;;7376463;19;20843;-59
2024/04/06 11:40:27;;;;;;;4.97;1.65;;;25.50;99.90;;;;;;7378347;19;20028;-58
2024/04/06 11:42:53;;;;;;;3.30;1.80;;;25.50;99.90;;;;;;7375572;19;20015;-59
2024/04/06 11:45:19;;;;;;;4.47;1.80;;;25.40;99.90;;;;;;7379348;19;20030;-60
2024/04/06 11:47:46;;;;;;;3.00;1.70;;;25.40;99.90;;;;;;7380241;19;20018;-59
2024/04/06 11:50:13;;;;;;;3.95;1.60;;;25.20;99.90;;;;;;7379017;19;20014;-56
2024/04/06 11:52:39;;;;;;;3.90;1.63;;;25.10;99.90;;;;;;7377399;19;20039;-57
2024/04/06 11:55:05;;;;;;;4.47;2.40;;;25.00;99.90;;;;;;7374810;19;20048;-59
2024/04/06 11:57:31;;;;;;;3.60;1.50;;;25.00;99.90;;;;;;7378784;19;20025;-59
2024/04/06 11:59:57;;;;;;;8.27;4.95;;;25.10;99.90;;;;;;7374500;19;20030;-57
2024/04/06 12:02:23;;;;;;;10.23;5.45;;;25.40;99.90;;;;;;7368880;19;20074;-59
2024/04/06 12:04:50;;;;;;;6.40;3.00;;;25.30;99.90;;;;;;7375322;19;20111;-57
2024/04/06 12:07:16;;;;;;;3.70;2.05;;;25.30;99.90;;;;;;7368790;19;20914;-58
2024/04/06 12:09:42;;;;;;;6.05;2.95;;;25.20;99.90;;;;;;7366271;19;20026;-59
2024/04/06 12:12:09;;;;;;;7.63;1.90;;;25.50;99.90;;;;;;7369451;19;20022;-58
2024/04/06 12:14:35;;;;;;;6.05;2.42;;;25.90;99.90;;;;;;7368927;19;20022;-58
2024/04/06 12:17:01;;;;;;;2.95;1.65;;;26.10;99.90;;;;;;7371150;19;20610;-58
2024/04/06 12:19:28;;;;;;;8.63;2.25;;;26.20;99.90;;;;;;7370219;19;20914;-57
2024/04/06 12:21:54;;;;;;;9.13;6.53;;;25.90;99.90;;;;;;7373426;19;20014;-57
2024/04/06 12:24:22;;;;;;;6.75;4.03;;;25.80;99.90;;;;;;7369994;19;20015;-57
2024/04/06 12:26:50;;;;;;;4.70;2.15;;;25.90;99.90;;;;;;7379299;19;20014;-61
2024/04/06 12:29:16;;;;;;;4.13;1.70;;;25.80;99.90;;;;;;7366156;19;20394;-60
2024/04/06 12:31:42;;;;;;;5.53;2.40;;;25.90;99.90;;;;;;7377622;19;20497;-60
2024/04/06 12:34:08;;;;;;;3.60;1.60;;;25.90;99.90;;;;;;7369598;19;20090;-59
2024/04/06 12:36:34;;;;;;;5.07;1.98;;;25.90;99.90;;;;;;7370659;19;20466;-60
2024/04/06 12:39:07;;;;;;;4.55;1.73;;;26.00;99.90;;;;;;7370234;19;20048;-60
2024/04/06 12:41:33;;;;;;;4.65;1.63;;;26.00;99.90;;;;;;7374272;19;20394;-60